Time;durP1;ratioP1;P1;durP2;ratioP2;P2;SDS_P1;SDS_P2;PMS_P1;PMS_P2;Temp;Humidity;BMP_temperature;BMP_pressure;BME280_temperature;BME280_humidity;BME280_pressure;Samples;Min_cycle;Max_cycle;Signal;HPM_P1;HPM_P2
2021/09/19 00:00:56;;;;;;;4.35;3.78;;;;;;;22.86;50.15;94957.19;5017959;28;20432;-72
2021/09/19 00:03:21;;;;;;;5.38;3.33;;;;;;;22.93;49.80;94969.00;4988009;28;20034;-73
2021/09/19 00:05:47;;;;;;;4.78;3.70;;;;;;;22.89;50.48;94979.41;4987022;28;20026;-72
2021/09/19 00:08:12;;;;;;;4.47;3.65;;;;;;;22.91;50.49;94976.94;4987676;28;20457;-72
2021/09/19 00:10:38;;;;;;;4.00;3.30;;;;;;;22.93;50.42;94963.56;4988123;28;20042;-73
2021/09/19 00:13:03;;;;;;;4.80;3.17;;;;;;;22.96;50.47;94950.94;4988249;28;20041;-72
2021/09/19 00:15:28;;;;;;;3.53;3.08;;;;;;;22.92;50.07;94959.31;4985815;28;20045;-73
2021/09/19 00:17:54;;;;;;;4.07;2.72;;;;;;;22.94;50.32;94947.97;4987725;28;20049;-72
2021/09/19 00:20:19;;;;;;;4.68;3.05;;;;;;;22.91;50.60;94938.06;4986609;28;20038;-73
2021/09/19 00:22:45;;;;;;;6.15;3.85;;;;;;;22.88;50.17;94932.91;4987243;28;20030;-73
2021/09/19 00:25:11;;;;;;;5.03;3.22;;;;;;;22.84;50.63;94937.88;4987560;28;20038;-73
2021/09/19 00:27:36;;;;;;;3.72;3.20;;;;;;;22.79;50.37;94936.66;4998360;28;20030;-72
2021/09/19 00:30:02;;;;;;;3.65;3.20;;;;;;;22.79;50.29;94935.94;4989173;28;20034;-73
2021/09/19 00:32:28;;;;;;;3.67;3.03;;;;;;;22.77;50.30;94928.28;4989258;28;20030;-73
2021/09/19 00:34:54;;;;;;;4.75;3.30;;;;;;;22.77;50.29;94922.09;4990121;28;20041;-72
2021/09/19 00:37:20;;;;;;;3.85;2.90;;;;;;;22.74;50.36;94923.13;4989417;28;20876;-73
2021/09/19 00:39:45;;;;;;;3.55;2.78;;;;;;;22.75;50.07;94930.00;4988342;28;20080;-73
2021/09/19 00:42:11;;;;;;;5.78;3.30;;;;;;;22.71;50.17;94915.97;5001227;28;20061;-73
2021/09/19 00:44:36;;;;;;;3.63;3.00;;;;;;;22.68;49.94;94919.69;5006608;28;20112;-73
2021/09/19 00:47:02;;;;;;;3.40;2.60;;;;;;;22.59;49.77;94906.41;5005049;28;20034;-72
2021/09/19 00:49:27;;;;;;;4.00;2.88;;;;;;;22.60;50.33;94908.63;5002775;28;20100;-72
2021/09/19 00:51:53;;;;;;;2.95;2.60;;;;;;;22.58;50.37;94907.63;4987352;28;20030;-73
2021/09/19 00:54:19;;;;;;;4.88;3.03;;;;;;;22.61;50.43;94914.78;5018508;28;20033;-73
2021/09/19 00:56:45;;;;;;;3.83;2.80;;;;;;;22.64;50.86;94908.34;4984116;28;20033;-73
2021/09/19 00:59:11;;;;;;;3.72;2.50;;;;;;;22.66;50.82;94894.94;4986904;28;20118;-73
2021/09/19 01:01:36;;;;;;;3.33;2.50;;;;;;;22.70;50.73;94900.84;4985717;28;20088;-73
2021/09/19 01:04:02;;;;;;;3.17;2.30;;;;;;;22.70;50.93;94895.41;4987197;28;20420;-73
2021/09/19 01:06:28;;;;;;;3.15;2.75;;;;;;;22.76;50.57;94904.28;5011383;28;20034;-73
2021/09/19 01:08:53;;;;;;;4.05;2.70;;;;;;;22.73;50.73;94906.03;4966865;28;20076;-73
2021/09/19 01:11:20;;;;;;;4.45;3.05;;;;;;;22.72;51.00;94914.69;4982629;28;20034;-73
2021/09/19 01:13:46;;;;;;;3.72;2.97;;;;;;;22.70;51.02;94911.75;4986741;28;20030;-73
2021/09/19 01:16:13;;;;;;;4.65;3.25;;;;;;;22.70;51.16;94901.59;4994020;28;20033;-73
2021/09/19 01:18:39;;;;;;;4.55;2.70;;;;;;;22.69;51.16;94904.81;5006559;28;20083;-70
2021/09/19 01:21:05;;;;;;;4.32;3.00;;;;;;;22.65;51.01;94896.22;4993081;28;20034;-73
2021/09/19 01:23:31;;;;;;;5.03;3.13;;;;;;;22.65;50.92;94899.66;4986680;28;20059;-73
2021/09/19 01:25:57;;;;;;;3.90;2.85;;;;;;;22.60;50.98;94896.97;4986603;28;20026;-73
2021/09/19 01:28:23;;;;;;;3.67;3.05;;;;;;;22.60;51.15;94891.53;4987227;28;20034;-73
2021/09/19 01:30:48;;;;;;;4.20;3.03;;;;;;;22.61;51.16;94903.91;4995466;28;20044;-73
2021/09/19 01:33:13;;;;;;;3.85;3.10;;;;;;;22.53;51.15;94897.53;4991524;28;20436;-73
2021/09/19 01:35:39;;;;;;;4.68;3.10;;;;;;;22.59;51.38;94900.97;4984364;28;20544;-73
2021/09/19 01:38:04;;;;;;;3.80;3.28;;;;;;;22.54;51.51;94888.09;4986461;28;20041;-73
2021/09/19 01:40:30;;;;;;;3.88;3.47;;;;;;;22.48;51.67;94895.56;4986556;28;20023;-73
2021/09/19 01:42:56;;;;;;;6.90;3.92;;;;;;;22.45;51.63;94886.47;4986285;28;20036;-73
2021/09/19 01:45:21;;;;;;;5.45;4.22;;;;;;;22.43;51.79;94899.09;4986609;28;20126;-73
2021/09/19 01:47:47;;;;;;;5.63;4.50;;;;;;;22.38;51.80;94897.16;4986140;28;20037;-73
2021/09/19 01:50:12;;;;;;;6.05;4.57;;;;;;;22.36;51.82;94894.19;4986666;28;20031;-73
2021/09/19 01:52:38;;;;;;;6.25;4.30;;;;;;;22.34;51.87;94896.66;4984274;28;20034;-73
2021/09/19 01:55:04;;;;;;;6.53;4.40;;;;;;;22.33;51.82;94899.91;4986644;28;20093;-73
2021/09/19 01:57:29;;;;;;;6.50;4.60;;;;;;;22.30;52.03;94896.22;4985153;28;20031;-72
2021/09/19 01:59:55;;;;;;;5.43;4.72;;;;;;;22.30;52.11;94896.22;4985173;28;20019;-73
2021/09/19 02:02:21;;;;;;;6.25;4.65;;;;;;;22.34;52.02;94885.78;4986465;28;20034;-73
2021/09/19 02:04:50;;;;;;;6.32;4.38;;;;;;;22.32;52.14;94893.72;5017013;28;20536;-73
2021/09/19 02:07:15;;;;;;;5.30;4.70;;;;;;;22.32;52.20;94893.72;4985852;28;20030;-73
2021/09/19 02:09:40;;;;;;;6.88;5.20;;;;;;;22.31;52.24;94896.94;4965892;28;20031;-73
2021/09/19 02:12:06;;;;;;;5.60;4.30;;;;;;;22.23;52.15;94885.88;4966873;28;20050;-73
2021/09/19 02:14:32;;;;;;;5.30;4.35;;;;;;;22.28;52.47;94882.38;4972937;28;20473;-73
2021/09/19 02:16:57;;;;;;;6.45;4.80;;;;;;;22.30;52.35;94879.13;4985922;28;20026;-73
2021/09/19 02:19:22;;;;;;;4.72;4.00;;;;;;;22.29;52.56;94883.84;4985675;28;20463;-73
2021/09/19 02:21:48;;;;;;;7.00;4.47;;;;;;;22.29;52.44;94883.84;4987921;28;20787;-73
2021/09/19 02:24:13;;;;;;;4.72;4.10;;;;;;;22.30;52.51;94885.34;4989835;28;20030;-73
2021/09/19 02:26:39;;;;;;;4.90;4.18;;;;;;;22.31;52.59;94875.91;4988282;28;20026;-73
2021/09/19 02:29:04;;;;;;;6.75;4.40;;;;;;;22.30;52.73;94874.47;4987983;28;20034;-73
2021/09/19 02:31:31;;;;;;;5.43;4.20;;;;;;;22.30;52.64;94873.69;4988868;28;20042;-73
2021/09/19 02:33:57;;;;;;;4.57;4.18;;;;;;;22.29;52.66;94872.97;5001215;28;20091;-73
2021/09/19 02:36:23;;;;;;;5.72;4.20;;;;;;;22.26;52.72;94873.97;5008537;28;20026;-73
2021/09/19 02:38:48;;;;;;;5.18;4.10;;;;;;;22.28;52.66;94876.94;5008294;28;20033;-72
2021/09/19 02:41:13;;;;;;;4.75;4.10;;;;;;;22.27;52.42;94864.59;5000900;28;20444;-73
2021/09/19 02:43:39;;;;;;;5.07;3.80;;;;;;;22.26;52.27;94879.44;4990373;28;20042;-73
2021/09/19 02:46:04;;;;;;;5.47;4.18;;;;;;;22.25;52.63;94883.38;4988839;28;20571;-73
2021/09/19 02:48:30;;;;;;;5.28;4.40;;;;;;;22.27;52.61;94886.34;4989427;28;20038;-72
2021/09/19 02:50:55;;;;;;;6.15;4.35;;;;;;;22.25;52.79;94877.94;4992413;28;20037;-73
2021/09/19 02:53:21;;;;;;;4.28;3.63;;;;;;;22.25;52.78;94867.06;4989115;28;20041;-73
2021/09/19 02:55:46;;;;;;;5.40;4.35;;;;;;;22.24;52.75;94876.47;4989852;28;20034;-73
2021/09/19 02:58:12;;;;;;;4.47;3.90;;;;;;;22.26;52.75;94879.44;5008730;28;20025;-73
2021/09/19 03:00:37;;;;;;;6.00;4.43;;;;;;;22.25;52.57;94872.50;4998644;28;20096;-73
2021/09/19 03:03:03;;;;;;;6.13;4.13;;;;;;;22.11;52.69;94846.34;4989306;28;20030;-73
2021/09/19 03:05:28;;;;;;;5.70;3.95;;;;;;;22.24;52.60;94876.47;4988555;28;20464;-73
2021/09/19 03:07:56;;;;;;;5.47;4.40;;;;;;;22.27;53.02;94875.47;4988260;28;20026;-73
2021/09/19 03:10:22;;;;;;;5.55;4.38;;;;;;;22.26;52.73;94873.25;4987029;28;20070;-73
2021/09/19 03:12:47;;;;;;;5.90;4.68;;;;;;;22.24;52.57;94870.28;4988540;28;20041;-73
2021/09/19 03:15:13;;;;;;;5.45;4.65;;;;;;;22.23;53.02;94869.56;4989248;28;20037;-73
2021/09/19 03:17:38;;;;;;;6.97;4.68;;;;;;;22.15;52.96;94857.72;5001434;28;20057;-73
2021/09/19 03:20:08;;;;;;;5.97;4.25;;;;;;;22.24;53.08;94865.59;5007161;28;20029;-73
2021/09/19 03:22:34;;;;;;;5.47;4.60;;;;;;;22.16;52.83;94869.31;4988034;28;20117;-72
2021/09/19 03:25:00;;;;;;;5.30;4.28;;;;;;;22.22;52.97;94881.66;5003925;28;20034;-73
2021/09/19 03:27:25;;;;;;;7.57;4.85;;;;;;;22.22;52.86;94878.94;4986909;28;20118;-73
2021/09/19 03:29:51;;;;;;;4.72;3.97;;;;;;;22.20;53.17;94875.97;4986976;28;20030;-73
2021/09/19 03:32:16;;;;;;;6.10;5.10;;;;;;;22.23;53.24;94877.72;4987628;28;20031;-73
2021/09/19 03:34:41;;;;;;;5.70;4.57;;;;;;;22.25;53.43;94867.06;4988217;28;20049;-73
2021/09/19 03:37:07;;;;;;;5.40;4.45;;;;;;;22.24;53.52;94864.84;4988361;28;20511;-73
2021/09/19 03:39:32;;;;;;;5.82;5.03;;;;;;;22.23;53.41;94864.13;4988215;28;20097;-72
2021/09/19 03:41:58;;;;;;;6.30;4.90;;;;;;;22.23;53.25;94869.56;5001284;28;20046;-73
2021/09/19 03:44:23;;;;;;;6.30;5.07;;;;;;;22.19;53.62;94866.31;5007818;28;20524;-73
2021/09/19 03:46:49;;;;;;;6.38;4.93;;;;;;;22.19;53.29;94869.03;5007412;28;20654;-73
2021/09/19 03:49:14;;;;;;;7.20;5.00;;;;;;;22.23;53.80;94869.56;4995139;28;20034;-73
2021/09/19 03:51:40;;;;;;;5.50;4.78;;;;;;;22.23;53.40;94875.00;4988382;28;20197;-73
2021/09/19 03:54:05;;;;;;;6.20;4.72;;;;;;;22.21;54.19;94877.50;4982498;28;20045;-73
2021/09/19 03:56:30;;;;;;;6.10;5.05;;;;;;;22.21;53.81;94876.72;4993897;28;20049;-73
2021/09/19 03:58:56;;;;;;;6.32;5.10;;;;;;;22.25;53.51;94877.94;4994319;28;20029;-73
2021/09/19 04:01:21;;;;;;;6.85;4.65;;;;;;;22.22;53.78;94873.50;4996066;28;20040;-73
2021/09/19 04:03:47;;;;;;;5.57;4.57;;;;;;;22.23;53.57;94880.44;4998317;28;20033;-72
2021/09/19 04:06:12;;;;;;;5.80;4.53;;;;;;;22.23;53.65;94877.72;4987094;28;20513;-73
2021/09/19 04:08:38;;;;;;;5.88;4.68;;;;;;;22.25;53.76;94877.94;4987899;28;20037;-73
2021/09/19 04:11:03;;;;;;;6.80;4.72;;;;;;;22.24;53.63;94876.47;4993813;28;20042;-73
2021/09/19 04:13:29;;;;;;;7.70;5.45;;;;;;;22.23;53.40;94868.81;4993506;28;20030;-73
2021/09/19 04:15:54;;;;;;;6.13;5.03;;;;;;;22.26;53.52;94871.25;4987714;28;20085;-73
2021/09/19 04:18:19;;;;;;;5.65;4.85;;;;;;;22.26;53.50;94868.53;4987785;28;20026;-73
2021/09/19 04:20:45;;;;;;;8.15;5.05;;;;;;;22.26;53.53;94868.53;4986581;28;20041;-73
2021/09/19 04:23:11;;;;;;;5.32;4.50;;;;;;;22.23;53.68;94863.38;4987649;28;20026;-72
2021/09/19 04:25:36;;;;;;;6.43;4.70;;;;;;;22.25;53.36;94867.06;4987883;28;20030;-73
2021/09/19 04:28:02;;;;;;;5.68;4.68;;;;;;;22.26;53.19;94868.53;4988462;28;20034;-73
2021/09/19 04:30:27;;;;;;;5.47;4.70;;;;;;;22.24;53.10;94865.59;4994091;28;20318;-73
2021/09/19 04:32:53;;;;;;;8.10;5.30;;;;;;;22.23;53.53;94875.00;5006011;28;20464;-74
2021/09/19 04:35:18;;;;;;;6.43;4.60;;;;;;;22.23;53.31;94891.31;5006172;28;20034;-73
2021/09/19 04:37:44;;;;;;;5.85;4.38;;;;;;;22.24;53.43;94892.81;5006921;28;20013;-73
2021/09/19 04:40:09;;;;;;;5.22;4.38;;;;;;;22.21;53.41;94882.94;5006970;28;20026;-73
2021/09/19 04:42:35;;;;;;;4.43;3.97;;;;;;;22.22;53.47;94889.81;5006738;28;20026;-74
2021/09/19 04:45:00;;;;;;;5.95;4.45;;;;;;;22.23;53.64;94902.19;4987908;28;20061;-73
2021/09/19 04:47:26;;;;;;;4.65;3.95;;;;;;;22.24;53.38;94892.81;4987569;28;20045;-73
2021/09/19 04:49:51;;;;;;;5.90;4.25;;;;;;;22.24;53.60;94900.97;4986614;28;20026;-73
2021/09/19 04:52:17;;;;;;;6.20;4.10;;;;;;;22.17;53.76;94881.69;4985627;28;20463;-73
2021/09/19 04:54:42;;;;;;;5.03;4.10;;;;;;;22.25;53.62;94894.25;4987035;28;20039;-73
2021/09/19 04:57:08;;;;;;;6.22;3.97;;;;;;;22.24;53.68;94898.25;4986007;28;20030;-73
2021/09/19 04:59:35;;;;;;;7.20;4.00;;;;;;;22.26;53.32;94903.91;4987667;28;20023;-75
2021/09/19 05:02:01;;;;;;;4.93;4.30;;;;;;;22.29;53.69;94902.91;4986498;28;20510;-75
2021/09/19 05:04:26;;;;;;;3.63;3.17;;;;;;;22.41;53.41;94896.13;4991142;28;20069;-78
2021/09/19 05:06:52;;;;;;;5.28;3.13;;;;;;;22.52;53.62;94896.06;5003570;28;20112;-76
2021/09/19 05:09:17;;;;;;;5.68;3.10;;;;;;;22.56;53.71;94885.63;4996094;28;20073;-76
2021/09/19 05:11:43;;;;;;;3.85;2.95;;;;;;;22.71;53.18;94886.00;4997858;28;20476;-75
2021/09/19 05:14:08;;;;;;;3.35;2.92;;;;;;;22.79;52.74;94876.03;5000288;28;20045;-74
2021/09/19 05:16:34;;;;;;;3.50;2.90;;;;;;;22.88;52.68;94883.88;5003021;28;20040;-76
2021/09/19 05:18:59;;;;;;;4.50;2.80;;;;;;;22.95;52.29;94890.25;5010029;28;20120;-76
2021/09/19 05:21:25;;;;;;;4.03;3.25;;;;;;;23.06;52.37;94895.63;5001994;28;20019;-80
2021/09/19 05:23:50;;;;;;;3.70;3.10;;;;;;;23.11;52.32;94886.66;5020987;28;20061;-80
2021/09/19 05:26:16;;;;;;;4.80;3.25;;;;;;;23.30;51.93;94890.16;5008214;28;20026;-75
2021/09/19 05:28:41;;;;;;;3.70;2.78;;;;;;;23.44;51.65;94886.31;5002390;28;20027;-78
2021/09/19 05:31:07;;;;;;;2.50;2.30;;;;;;;23.55;51.38;94892.34;4997847;28;20084;-77
2021/09/19 05:33:32;;;;;;;5.13;2.75;;;;;;;23.69;50.55;94901.41;5009275;28;20040;-78
2021/09/19 05:35:57;;;;;;;3.10;2.63;;;;;;;23.81;51.19;94887.13;5019242;28;20022;-78
2021/09/19 05:38:23;;;;;;;3.88;2.88;;;;;;;23.95;50.55;94881.22;5003056;28;20018;-78
2021/09/19 05:40:49;;;;;;;3.17;2.72;;;;;;;24.07;50.49;94888.00;5004705;28;20105;-79
2021/09/19 05:43:14;;;;;;;2.92;2.45;;;;;;;24.20;49.94;94877.19;4996935;28;20053;-78
2021/09/19 05:45:39;;;;;;;4.30;3.08;;;;;;;24.32;49.59;94867.56;4992471;28;20027;-76
2021/09/19 05:48:05;;;;;;;3.90;2.67;;;;;;;24.52;49.21;94872.50;4984320;28;20536;-76
2021/09/19 05:50:31;;;;;;;2.70;2.38;;;;;;;24.65;49.09;94864.34;4988166;28;20031;-82
2021/09/19 05:52:56;;;;;;;4.03;2.60;;;;;;;24.73;48.84;94859.75;4980523;28;20026;-79
2021/09/19 05:55:21;;;;;;;4.65;3.05;;;;;;;24.84;48.58;94839.19;4989398;28;20029;-78
2021/09/19 05:57:47;;;;;;;2.75;2.30;;;;;;;24.98;48.33;94837.94;4991114;28;20065;-83
2021/09/19 06:00:13;;;;;;;4.88;2.97;;;;;;;25.10;48.18;94839.25;4994019;28;20052;-82
2021/09/19 06:02:38;;;;;;;4.57;2.88;;;;;;;25.17;47.93;94844.09;4997820;28;20501;-78
2021/09/19 06:05:05;;;;;;;4.28;2.47;;;;;;;25.25;47.96;94844.94;4999643;28;20030;-77
2021/09/19 06:07:30;;;;;;;3.08;2.67;;;;;;;25.38;47.96;94847.66;4995295;28;20026;-76
2021/09/19 06:09:56;;;;;;;3.22;2.80;;;;;;;25.47;47.51;94855.44;4991831;28;20015;-77
2021/09/19 06:12:21;;;;;;;2.90;2.60;;;;;;;25.57;47.30;94853.75;4991965;28;20030;-75
2021/09/19 06:14:47;;;;;;;3.63;2.40;;;;;;;25.61;47.20;94856.91;4991343;28;20053;-76
2021/09/19 06:17:12;;;;;;;4.53;2.60;;;;;;;25.67;47.51;94846.63;4991326;28;20030;-75
2021/09/19 06:19:38;;;;;;;2.95;2.63;;;;;;;25.79;46.96;94854.78;5006094;28;20049;-73
2021/09/19 06:22:03;;;;;;;2.92;2.58;;;;;;;25.88;47.05;94845.44;4996247;28;20543;-78
2021/09/19 06:24:29;;;;;;;3.40;2.45;;;;;;;25.90;46.84;94838.16;4989377;28;20030;-79
2021/09/19 06:26:56;;;;;;;4.30;2.58;;;;;;;26.04;46.42;94853.28;5028214;28;20030;-77
2021/09/19 06:29:21;;;;;;;3.47;3.08;;;;;;;26.09;46.56;94849.69;5003147;28;20065;-76
2021/09/19 06:31:47;;;;;;;3.00;2.60;;;;;;;26.16;46.56;94865.47;5007015;28;20022;-75
2021/09/19 06:34:12;;;;;;;3.10;2.40;;;;;;;26.22;46.50;94868.06;5013258;28;20026;-75
2021/09/19 06:36:38;;;;;;;3.05;2.35;;;;;;;26.25;46.13;94867.75;5016204;28;20030;-76
2021/09/19 06:39:03;;;;;;;2.92;2.38;;;;;;;26.24;46.13;94866.28;5012774;28;20497;-75
2021/09/19 06:41:29;;;;;;;2.65;2.30;;;;;;;26.35;45.60;94872.28;5008027;28;20502;-78
2021/09/19 06:43:54;;;;;;;3.10;2.60;;;;;;;26.44;45.54;94873.81;4989149;28;20520;-76
2021/09/19 06:46:20;;;;;;;3.05;2.30;;;;;;;26.51;45.55;94873.16;4991336;28;20041;-75
2021/09/19 06:48:45;;;;;;;4.97;2.80;;;;;;;26.54;45.78;94866.63;4990795;28;20026;-75
2021/09/19 06:51:11;;;;;;;2.58;2.30;;;;;;;26.66;45.47;94848.66;4990517;28;20037;-73
2021/09/19 06:53:37;;;;;;;3.10;2.53;;;;;;;26.79;44.71;94865.75;4990372;28;20023;-74
2021/09/19 06:56:04;;;;;;;3.38;2.55;;;;;;;26.73;44.81;94856.94;4989669;28;20576;-73
2021/09/19 06:58:30;;;;;;;3.00;2.40;;;;;;;26.76;44.76;94860.63;4990603;28;20042;-75
2021/09/19 07:00:56;;;;;;;3.53;2.42;;;;;;;26.80;45.21;94862.47;4990361;28;20460;-77
2021/09/19 07:03:22;;;;;;;3.75;2.55;;;;;;;26.81;44.92;94863.94;4990096;28;20117;-77
2021/09/19 07:05:47;;;;;;;3.95;2.90;;;;;;;26.80;44.63;94873.44;4990819;28;20022;-78
2021/09/19 07:08:12;;;;;;;2.90;2.47;;;;;;;26.81;45.19;94880.38;4991190;28;20472;-83
2021/09/19 07:10:38;;;;;;;3.00;2.70;;;;;;;26.78;45.25;94875.22;4992180;28;20042;-82
2021/09/19 07:13:04;;;;;;;3.72;2.70;;;;;;;26.87;45.00;94883.72;4989375;28;20034;-76
2021/09/19 07:15:29;;;;;;;5.00;2.85;;;;;;;26.95;45.00;94890.03;5012211;28;20014;-77
2021/09/19 07:17:54;;;;;;;3.58;2.80;;;;;;;26.98;44.77;94882.72;5000072;28;20022;-74
2021/09/19 07:20:20;;;;;;;4.03;2.88;;;;;;;27.06;44.84;94878.78;4993758;28;20073;-79
2021/09/19 07:22:46;;;;;;;4.47;2.92;;;;;;;27.12;44.48;94882.13;4994796;28;20124;-79
2021/09/19 07:25:12;;;;;;;3.25;2.90;;;;;;;27.16;44.44;94882.53;4993582;28;20057;-79
2021/09/19 07:27:38;;;;;;;3.20;2.38;;;;;;;27.16;44.44;94866.09;4991450;28;20038;-81
2021/09/19 07:30:04;;;;;;;5.38;3.00;;;;;;;27.20;44.39;94877.44;5005710;28;20031;-79
2021/09/19 07:32:31;;;;;;;3.30;2.78;;;;;;;27.27;44.49;94882.97;4996866;28;20489;-77
2021/09/19 07:34:57;;;;;;;3.97;2.88;;;;;;;27.27;44.18;94882.25;4997645;28;20105;-79
2021/09/19 07:37:22;;;;;;;3.15;2.67;;;;;;;27.35;44.25;94883.03;4988970;28;20033;-76
2021/09/19 07:39:48;;;;;;;3.35;2.80;;;;;;;27.31;44.12;94893.63;4988256;28;20027;-78
2021/09/19 07:42:14;;;;;;;3.40;2.63;;;;;;;27.32;44.07;94895.06;4989406;28;20038;-78
2021/09/19 07:44:40;;;;;;;3.78;2.80;;;;;;;27.31;44.45;94899.09;4990017;28;20057;-77
2021/09/19 07:47:06;;;;;;;6.00;3.03;;;;;;;27.38;43.78;94903.88;4989331;28;20038;-78
2021/09/19 07:49:31;;;;;;;3.42;2.88;;;;;;;27.42;43.63;94904.28;4989141;28;20014;-77
2021/09/19 07:51:57;;;;;;;4.00;3.17;;;;;;;27.39;43.72;94899.88;4990752;28;20026;-77
2021/09/19 07:54:23;;;;;;;3.65;2.63;;;;;;;27.47;43.64;94911.63;4994702;28;20027;-74
2021/09/19 07:56:48;;;;;;;3.65;2.80;;;;;;;27.49;43.97;94920.06;4998127;28;20394;-78
2021/09/19 07:59:14;;;;;;;2.58;2.38;;;;;;;27.52;43.91;94897.06;5015301;28;20037;-81
2021/09/19 08:01:39;;;;;;;3.58;2.22;;;;;;;27.55;43.49;94906.94;4992532;28;20030;-78
2021/09/19 08:04:05;;;;;;;2.95;2.60;;;;;;;27.63;43.85;94902.25;5003353;28;20026;-74
2021/09/19 08:06:31;;;;;;;4.65;2.70;;;;;;;27.66;43.37;94901.91;5004960;28;20522;-78
2021/09/19 08:08:56;;;;;;;5.65;2.85;;;;;;;27.72;42.97;94899.03;4989742;28;20100;-79
2021/09/19 08:11:22;;;;;;;3.33;2.78;;;;;;;27.76;42.83;94906.34;4996380;28;20026;-76
2021/09/19 08:13:47;;;;;;;2.60;2.30;;;;;;;27.73;43.29;94912.19;4989582;28;20022;-78
2021/09/19 08:16:15;;;;;;;3.28;2.38;;;;;;;27.75;43.27;94891.16;4989541;28;20037;-76
2021/09/19 08:18:40;;;;;;;2.88;2.40;;;;;;;27.80;42.77;94906.00;4987806;28;20444;-76
2021/09/19 08:21:06;;;;;;;2.75;2.42;;;;;;;27.77;43.14;94907.84;4989669;28;20038;-79
2021/09/19 08:23:31;;;;;;;3.67;2.47;;;;;;;27.77;42.83;94902.34;4988874;28;20037;-74
2021/09/19 08:25:56;;;;;;;3.35;2.45;;;;;;;27.85;42.84;94897.63;4986951;28;20485;-80
2021/09/19 08:28:22;;;;;;;2.67;2.42;;;;;;;27.83;42.70;94905.69;4989866;28;20485;-79
2021/09/19 08:30:47;;;;;;;3.45;2.53;;;;;;;27.89;42.62;94906.25;5004375;28;20098;-78
2021/09/19 08:33:13;;;;;;;4.70;2.22;;;;;;;27.91;42.88;94906.44;5003421;28;20033;-83
2021/09/19 08:35:38;;;;;;;3.20;2.70;;;;;;;27.88;43.04;94907.53;5008538;28;20072;-75
2021/09/19 08:38:04;;;;;;;4.85;2.42;;;;;;;27.95;42.82;94906.84;5002227;28;20080;-76
2021/09/19 08:40:29;;;;;;;5.20;2.78;;;;;;;27.98;42.49;94905.75;5003554;28;20432;-77
2021/09/19 08:42:55;;;;;;;4.25;2.30;;;;;;;27.95;42.05;94906.84;4996898;28;20022;-75
2021/09/19 08:45:21;;;;;;;4.35;2.15;;;;;;;27.97;42.59;94904.28;5007649;28;20560;-80
2021/09/19 08:47:49;;;;;;;3.75;2.55;;;;;;;28.00;42.60;94903.19;5005931;28;20040;-79
2021/09/19 08:50:14;;;;;;;3.75;1.98;;;;;;;28.04;42.53;94903.59;5004599;28;20045;-78
2021/09/19 08:52:40;;;;;;;3.33;2.25;;;;;;;28.08;42.08;94908.72;5001250;28;20022;-74
2021/09/19 08:55:06;;;;;;;3.83;2.30;;;;;;;28.04;42.68;94909.06;4986469;28;20050;-75
2021/09/19 08:57:31;;;;;;;5.13;2.75;;;;;;;28.08;42.48;94909.44;4990217;28;20509;-75
2021/09/19 09:00:01;;;;;;;6.25;2.75;;;;;;;28.12;42.32;94909.84;4977420;28;20022;-75
2021/09/19 09:02:26;;;;;;;4.32;2.38;;;;;;;28.11;42.41;94907.66;4988246;28;20061;-75
2021/09/19 09:04:56;;;;;;;2.88;2.20;;;;;;;28.11;41.85;94891.19;5005476;28;20097;-75
2021/09/19 09:07:22;;;;;;;3.83;2.42;;;;;;;28.12;41.94;94909.84;5003248;28;20758;-79
2021/09/19 09:09:53;;;;;;;4.97;2.92;;;;;;;28.13;42.58;94922.31;4987006;28;20041;-78
2021/09/19 09:12:18;;;;;;;4.03;2.40;;;;;;;28.21;42.16;94922.34;4991412;28;20113;-78
2021/09/19 09:14:49;;;;;;;5.63;3.22;;;;;;;28.18;42.39;94924.16;4989070;28;20613;-76
2021/09/19 09:17:19;;;;;;;5.28;2.90;;;;;;;28.16;42.50;94910.25;4987916;28;20081;-77
2021/09/19 09:19:47;;;;;;;4.60;2.55;;;;;;;28.15;42.53;94903.28;4988109;28;20030;-76
2021/09/19 09:22:13;;;;;;;4.30;2.47;;;;;;;28.18;42.24;94907.69;4989175;28;20045;-77
2021/09/19 09:24:40;;;;;;;6.43;2.85;;;;;;;28.20;42.23;94910.63;4988532;28;20519;-77
2021/09/19 09:27:25;;;;;;;6.45;2.85;;;;;;;28.14;42.08;94912.06;5001728;28;20037;-78
2021/09/19 09:30:12;;;;;;;6.03;4.15;;;;;;;27.99;41.16;94890.72;4992729;28;20034;-76
2021/09/19 09:33:00;;;;;;;5.03;2.83;;;;;;;28.04;41.93;94892.59;4998570;28;20120;-75
2021/09/19 09:35:37;;;;;;;5.13;3.03;;;;;;;28.05;42.03;94891.31;4998708;28;20049;-78
2021/09/19 09:38:18;;;;;;;6.78;3.30;;;;;;;28.15;41.06;94883.34;4996625;28;20087;-75
2021/09/19 09:40:44;;;;;;;5.28;2.97;;;;;;;28.15;41.47;94875.81;5000164;28;20040;-76
2021/09/19 09:43:11;;;;;;;6.22;3.00;;;;;;;28.16;41.28;94871.81;4986629;28;20030;-76
2021/09/19 09:45:38;;;;;;;5.55;3.03;;;;;;;28.10;40.94;94879.47;5002071;28;20030;-77
2021/09/19 09:48:22;;;;;;;4.50;3.08;;;;;;;28.10;41.45;94879.47;4996719;28;20069;-77
2021/09/19 09:50:48;;;;;;;6.88;3.20;;;;;;;28.03;42.02;94879.41;4993831;28;20045;-77
2021/09/19 09:53:14;;;;;;;5.82;3.38;;;;;;;28.17;41.81;94861.53;5005679;28;20022;-77
2021/09/19 09:55:43;;;;;;;4.90;3.20;;;;;;;28.23;41.57;94865.59;4986922;28;20074;-76
2021/09/19 09:58:10;;;;;;;5.35;3.10;;;;;;;28.24;42.11;94850.59;4985857;28;20027;-77
2021/09/19 10:00:36;;;;;;;8.68;3.22;;;;;;;28.33;42.13;94841.81;4985801;28;20489;-76
2021/09/19 10:03:01;;;;;;;6.35;3.20;;;;;;;28.28;41.73;94839.94;4987231;28;20033;-75
2021/09/19 10:05:28;;;;;;;6.88;3.35;;;;;;;28.42;41.95;94849.53;4988722;28;20018;-76
2021/09/19 10:07:54;;;;;;;4.97;3.10;;;;;;;28.47;41.81;94843.13;4991346;28;20054;-78
2021/09/19 10:10:23;;;;;;;4.22;3.10;;;;;;;28.54;42.02;94843.13;4987599;28;20057;-79
2021/09/19 10:12:50;;;;;;;4.15;2.60;;;;;;;28.53;42.16;94838.19;4988593;28;20018;-81
2021/09/19 10:15:15;;;;;;;6.30;3.00;;;;;;;28.50;42.33;94840.00;4988962;28;20031;-81
2021/09/19 10:17:43;;;;;;;4.38;2.90;;;;;;;28.52;41.86;94836.72;5011167;28;20031;-76
2021/09/19 10:20:14;;;;;;;6.07;3.00;;;;;;;28.60;41.71;94838.19;4995526;28;20061;-78
2021/09/19 10:22:47;;;;;;;4.85;2.90;;;;;;;28.63;41.57;94841.88;4986978;28;20049;-78
2021/09/19 10:25:25;;;;;;;6.97;2.90;;;;;;;28.68;42.16;94832.75;5002679;28;20061;-79
2021/09/19 10:27:50;;;;;;;5.97;3.00;;;;;;;28.71;41.85;94820.66;4988785;28;20489;-76
2021/09/19 10:30:18;;;;;;;8.25;3.63;;;;;;;28.79;41.83;94816.63;4992973;28;20026;-76
2021/09/19 10:32:45;;;;;;;5.72;3.35;;;;;;;28.76;41.62;94823.94;5003050;28;20056;-79
2021/09/19 10:35:16;;;;;;;4.57;3.17;;;;;;;28.80;41.52;94824.31;4997020;28;20062;-80
2021/09/19 10:38:03;;;;;;;6.93;3.08;;;;;;;28.78;41.91;94815.88;4990246;28;20681;-79
2021/09/19 10:40:41;;;;;;;4.07;3.20;;;;;;;28.81;41.91;94809.28;4983267;28;20733;-75
2021/09/19 10:43:08;;;;;;;4.45;2.85;;;;;;;28.89;41.40;94815.53;4992332;28;20053;-80
2021/09/19 10:45:43;;;;;;;4.93;2.95;;;;;;;28.90;41.53;94814.22;4994755;28;20656;-81
2021/09/19 10:48:18;;;;;;;4.07;2.92;;;;;;;28.96;41.52;94820.28;4995150;28;20026;-82
2021/09/19 10:50:45;;;;;;;4.38;3.15;;;;;;;28.96;41.65;94814.78;4995340;28;20109;-82
2021/09/19 10:53:16;;;;;;;4.80;3.17;;;;;;;28.99;41.65;94808.16;4994693;28;20057;-82
2021/09/19 10:56:04;;;;;;;5.07;3.38;;;;;;;29.06;41.54;94801.19;4994062;28;20044;-80
2021/09/19 10:58:33;;;;;;;5.63;3.10;;;;;;;29.10;41.48;94796.78;5002094;28;20030;-82
2021/09/19 11:01:24;;;;;;;4.53;3.17;;;;;;;29.02;41.53;94785.06;4993931;28;20014;-78
2021/09/19 11:03:59;;;;;;;5.00;3.20;;;;;;;29.14;40.97;94797.16;4992437;28;20045;-77
2021/09/19 11:06:28;;;;;;;4.07;2.85;;;;;;;29.12;41.43;94794.22;4987261;28;20060;-76
2021/09/19 11:08:54;;;;;;;7.25;3.13;;;;;;;29.11;41.56;94781.03;4991954;28;20030;-75
2021/09/19 11:11:21;;;;;;;3.65;2.90;;;;;;;29.11;41.46;94776.25;4975262;28;20027;-77
2021/09/19 11:13:53;;;;;;;4.90;2.90;;;;;;;29.07;41.61;94781.38;4992353;28;20018;-77
2021/09/19 11:16:21;;;;;;;4.78;3.10;;;;;;;29.16;41.39;94783.56;4989635;28;20571;-79
2021/09/19 11:18:48;;;;;;;5.35;3.58;;;;;;;29.10;41.21;94780.28;5006226;28;20060;-79
2021/09/19 11:21:20;;;;;;;5.22;3.20;;;;;;;29.06;41.76;94763.44;4994566;28;20030;-75
2021/09/19 11:23:52;;;;;;;7.07;4.00;;;;;;;29.12;41.46;94760.47;4999387;28;20018;-78
2021/09/19 11:26:19;;;;;;;8.50;3.53;;;;;;;29.22;41.57;94764.84;5017147;28;20026;-76
2021/09/19 11:28:46;;;;;;;6.47;3.40;;;;;;;29.07;41.72;94759.38;5030200;28;20057;-75
2021/09/19 11:31:11;;;;;;;7.80;4.82;;;;;;;29.06;41.71;94757.94;5029704;28;20029;-79